sensor_id;sensor_type;location;lat;lon;timestamp;temperature;humidity
37204;DHT22;23098;48.054;10.636;2024-02-16T00:01:54;4.80;99.90
37204;DHT22;23098;48.054;10.636;2024-02-16T00:04:19;4.90;99.90
37204;DHT22;23098;48.054;10.636;2024-02-16T00:06:45;4.90;99.90
37204;DHT22;23098;48.054;10.636;2024-02-16T00:09:10;5.00;99.90
37204;DHT22;23098;48.054;10.636;2024-02-16T00:11:37;5.00;99.90
37204;DHT22;23098;48.054;10.636;2024-02-16T00:14:02;5.10;99.90
37204;DHT22;23098;48.054;10.636;2024-02-16T00:16:28;5.10;99.90
37204;DHT22;23098;48.054;10.636;2024-02-16T00:18:53;5.20;99.90
37204;DHT22;23098;48.054;10.636;2024-02-16T00:21:19;5.30;99.90
37204;DHT22;23098;48.054;10.636;2024-02-16T00:23:45;5.50;99.90
37204;DHT22;23098;48.054;10.636;2024-02-16T00:26:10;5.50;99.90
37204;DHT22;23098;48.054;10.636;2024-02-16T00:28:36;5.50;99.90
37204;DHT22;23098;48.054;10.636;2024-02-16T00:31:01;5.50;99.90
37204;DHT22;23098;48.054;10.636;2024-02-16T00:33:27;5.50;99.90
37204;DHT22;23098;48.054;10.636;2024-02-16T00:35:54;5.60;99.90
37204;DHT22;23098;48.054;10.636;2024-02-16T00:38:19;5.60;99.90
37204;DHT22;23098;48.054;10.636;2024-02-16T00:40:45;5.50;99.90
37204;DHT22;23098;48.054;10.636;2024-02-16T00:43:10;5.60;99.90
37204;DHT22;23098;48.054;10.636;2024-02-16T00:45:37;5.60;99.90
37204;DHT22;23098;48.054;10.636;2024-02-16T00:48:03;5.60;99.90
37204;DHT22;23098;48.054;10.636;2024-02-16T00:50:29;5.60;99.90
37204;DHT22;23098;48.054;10.636;2024-02-16T00:52:54;5.60;99.90
37204;DHT22;23098;48.054;10.636;2024-02-16T00:55:20;5.50;99.90
37204;DHT22;23098;48.054;10.636;2024-02-16T00:57:45;5.50;99.90
37204;DHT22;23098;48.054;10.636;2024-02-16T01:00:11;5.60;99.90
37204;DHT22;23098;48.054;10.636;2024-02-16T01:02:37;5.60;99.90
37204;DHT22;23098;48.054;10.636;2024-02-16T01:05:03;5.40;99.90
37204;DHT22;23098;48.054;10.636;2024-02-16T01:07:28;5.40;99.90
37204;DHT22;23098;48.054;10.636;2024-02-16T01:09:54;5.40;99.90
37204;DHT22;23098;48.054;10.636;2024-02-16T01:12:21;5.40;99.90
37204;DHT22;23098;48.054;10.636;2024-02-16T01:14:47;5.30;99.90
37204;DHT22;23098;48.054;10.636;2024-02-16T01:17:12;5.30;99.90
37204;DHT22;23098;48.054;10.636;2024-02-16T01:19:38;5.20;99.90
37204;DHT22;23098;48.054;10.636;2024-02-16T01:22:03;5.10;99.90
37204;DHT22;23098;48.054;10.636;2024-02-16T01:24:29;5.10;99.90
37204;DHT22;23098;48.054;10.636;2024-02-16T01:26:54;5.10;99.90
37204;DHT22;23098;48.054;10.636;2024-02-16T01:29:20;5.10;99.90
37204;DHT22;23098;48.054;10.636;2024-02-16T01:31:45;5.10;99.90
37204;DHT22;23098;48.054;10.636;2024-02-16T01:34:11;5.10;99.90
37204;DHT22;23098;48.054;10.636;2024-02-16T01:36:36;5.10;99.90
37204;DHT22;23098;48.054;10.636;2024-02-16T01:39:02;5.10;99.90
37204;DHT22;23098;48.054;10.636;2024-02-16T01:41:27;5.10;99.90
37204;DHT22;23098;48.054;10.636;2024-02-16T01:43:53;5.10;99.90
37204;DHT22;23098;48.054;10.636;2024-02-16T01:46:20;5.10;99.90
37204;DHT22;23098;48.054;10.636;2024-02-16T01:48:45;5.10;99.90
37204;DHT22;23098;48.054;10.636;2024-02-16T01:51:11;5.10;99.90
37204;DHT22;23098;48.054;10.636;2024-02-16T01:53:38;5.00;99.90
37204;DHT22;23098;48.054;10.636;2024-02-16T01:56:04;5.00;99.90
37204;DHT22;23098;48.054;10.636;2024-02-16T01:58:30;4.90;99.90
37204;DHT22;23098;48.054;10.636;2024-02-16T02:00:55;4.90;99.90
37204;DHT22;23098;48.054;10.636;2024-02-16T02:03:21;4.90;99.90
37204;DHT22;23098;48.054;10.636;2024-02-16T02:05:48;4.90;99.90
37204;DHT22;23098;48.054;10.636;2024-02-16T02:08:15;4.90;99.90
37204;DHT22;23098;48.054;10.636;2024-02-16T02:10:40;4.80;99.90
37204;DHT22;23098;48.054;10.636;2024-02-16T02:13:06;4.80;99.90
37204;DHT22;23098;48.054;10.636;2024-02-16T02:15:31;4.80;99.90
37204;DHT22;23098;48.054;10.636;2024-02-16T02:17:57;4.90;99.90
37204;DHT22;23098;48.054;10.636;2024-02-16T02:20:24;4.90;99.90
37204;DHT22;23098;48.054;10.636;2024-02-16T02:22:50;4.90;99.90
37204;DHT22;23098;48.054;10.636;2024-02-16T02:25:15;5.00;99.90
37204;DHT22;23098;48.054;10.636;2024-02-16T02:27:41;4.90;99.90
37204;DHT22;23098;48.054;10.636;2024-02-16T02:30:07;4.90;99.90
37204;DHT22;23098;48.054;10.636;2024-02-16T02:32:32;4.90;99.90
37204;DHT22;23098;48.054;10.636;2024-02-16T02:34:58;5.00;99.90
37204;DHT22;23098;48.054;10.636;2024-02-16T02:37:23;5.00;99.90
37204;DHT22;23098;48.054;10.636;2024-02-16T02:39:49;5.10;99.90
37204;DHT22;23098;48.054;10.636;2024-02-16T02:42:14;5.20;99.90
37204;DHT22;23098;48.054;10.636;2024-02-16T02:44:40;5.30;99.90
37204;DHT22;23098;48.054;10.636;2024-02-16T02:47:06;5.30;99.90
37204;DHT22;23098;48.054;10.636;2024-02-16T02:49:31;5.40;99.90
37204;DHT22;23098;48.054;10.636;2024-02-16T02:51:58;5.40;99.90
37204;DHT22;23098;48.054;10.636;2024-02-16T02:54:24;5.50;99.90
37204;DHT22;23098;48.054;10.636;2024-02-16T02:56:49;5.50;99.90
37204;DHT22;23098;48.054;10.636;2024-02-16T02:59:15;5.60;99.90
37204;DHT22;23098;48.054;10.636;2024-02-16T03:01:40;5.60;99.90
37204;DHT22;23098;48.054;10.636;2024-02-16T03:04:06;5.60;99.90
37204;DHT22;23098;48.054;10.636;2024-02-16T03:06:31;5.60;99.90
37204;DHT22;23098;48.054;10.636;2024-02-16T03:08:57;5.70;99.90
37204;DHT22;23098;48.054;10.636;2024-02-16T03:11:22;5.70;99.90
37204;DHT22;23098;48.054;10.636;2024-02-16T03:13:48;5.60;99.90
37204;DHT22;23098;48.054;10.636;2024-02-16T03:16:13;5.60;99.90
37204;DHT22;23098;48.054;10.636;2024-02-16T03:18:41;5.60;99.90
37204;DHT22;23098;48.054;10.636;2024-02-16T03:21:06;5.60;99.90
37204;DHT22;23098;48.054;10.636;2024-02-16T03:23:33;5.60;99.90
37204;DHT22;23098;48.054;10.636;2024-02-16T03:25:58;5.50;99.90
37204;DHT22;23098;48.054;10.636;2024-02-16T03:28:24;5.50;99.90
37204;DHT22;23098;48.054;10.636;2024-02-16T03:30:49;5.50;99.90
37204;DHT22;23098;48.054;10.636;2024-02-16T03:33:15;5.50;99.90
37204;DHT22;23098;48.054;10.636;2024-02-16T03:35:41;5.50;99.90
37204;DHT22;23098;48.054;10.636;2024-02-16T03:38:06;5.60;99.90
37204;DHT22;23098;48.054;10.636;2024-02-16T03:40:33;5.60;99.90
37204;DHT22;23098;48.054;10.636;2024-02-16T03:42:59;5.70;99.90
37204;DHT22;23098;48.054;10.636;2024-02-16T03:45:24;5.70;99.90
37204;DHT22;23098;48.054;10.636;2024-02-16T03:47:52;5.70;99.90
37204;DHT22;23098;48.054;10.636;2024-02-16T03:50:19;5.70;99.90
37204;DHT22;23098;48.054;10.636;2024-02-16T03:52:44;5.70;99.90
37204;DHT22;23098;48.054;10.636;2024-02-16T03:55:10;5.70;99.90
37204;DHT22;23098;48.054;10.636;2024-02-16T03:57:37;5.70;99.90
37204;DHT22;23098;48.054;10.636;2024-02-16T04:00:03;5.70;99.90
37204;DHT22;23098;48.054;10.636;2024-02-16T04:02:31;5.70;99.90
37204;DHT22;23098;48.054;10.636;2024-02-16T04:04:56;5.80;99.90
37204;DHT22;23098;48.054;10.636;2024-02-16T04:07:22;5.80;99.90
37204;DHT22;23098;48.054;10.636;2024-02-16T04:09:47;5.80;99.90
37204;DHT22;23098;48.054;10.636;2024-02-16T04:12:12;5.80;99.90
37204;DHT22;23098;48.054;10.636;2024-02-16T04:14:38;5.80;99.90
37204;DHT22;23098;48.054;10.636;2024-02-16T04:17:03;5.90;99.90
37204;DHT22;23098;48.054;10.636;2024-02-16T04:19:29;5.90;99.90
37204;DHT22;23098;48.054;10.636;2024-02-16T04:21:55;5.90;99.90
37204;DHT22;23098;48.054;10.636;2024-02-16T04:24:21;5.90;99.90
37204;DHT22;23098;48.054;10.636;2024-02-16T04:26:46;5.90;99.90
37204;DHT22;23098;48.054;10.636;2024-02-16T04:29:12;5.90;99.90
37204;DHT22;23098;48.054;10.636;2024-02-16T04:31:41;5.90;99.90
37204;DHT22;23098;48.054;10.636;2024-02-16T04:34:08;5.90;99.90
37204;DHT22;23098;48.054;10.636;2024-02-16T04:36:34;5.90;99.90
37204;DHT22;23098;48.054;10.636;2024-02-16T04:39:00;5.90;99.90
37204;DHT22;23098;48.054;10.636;2024-02-16T04:41:25;5.90;99.90
37204;DHT22;23098;48.054;10.636;2024-02-16T04:43:51;5.90;99.90
37204;DHT22;23098;48.054;10.636;2024-02-16T04:46:16;5.90;99.90
37204;DHT22;23098;48.054;10.636;2024-02-16T04:48:42;5.90;99.90
37204;DHT22;23098;48.054;10.636;2024-02-16T04:51:08;5.90;99.90
37204;DHT22;23098;48.054;10.636;2024-02-16T04:53:33;6.00;99.90
37204;DHT22;23098;48.054;10.636;2024-02-16T04:55:59;6.00;99.90
37204;DHT22;23098;48.054;10.636;2024-02-16T04:58:25;6.00;99.90
37204;DHT22;23098;48.054;10.636;2024-02-16T05:00:50;6.00;99.90
37204;DHT22;23098;48.054;10.636;2024-02-16T05:03:16;5.90;99.90
37204;DHT22;23098;48.054;10.636;2024-02-16T05:05:41;5.90;99.90
37204;DHT22;23098;48.054;10.636;2024-02-16T05:08:07;5.80;99.90
37204;DHT22;23098;48.054;10.636;2024-02-16T05:10:32;5.80;99.90
37204;DHT22;23098;48.054;10.636;2024-02-16T05:12:58;5.60;99.90
37204;DHT22;23098;48.054;10.636;2024-02-16T05:15:24;5.60;99.90
37204;DHT22;23098;48.054;10.636;2024-02-16T05:17:49;5.50;99.90
37204;DHT22;23098;48.054;10.636;2024-02-16T05:20:15;5.50;99.90
37204;DHT22;23098;48.054;10.636;2024-02-16T05:22:44;5.40;99.90
37204;DHT22;23098;48.054;10.636;2024-02-16T05:25:12;5.40;99.90
37204;DHT22;23098;48.054;10.636;2024-02-16T05:27:37;5.30;99.90
37204;DHT22;23098;48.054;10.636;2024-02-16T05:30:04;5.30;99.90
37204;DHT22;23098;48.054;10.636;2024-02-16T05:32:36;5.20;99.90
37204;DHT22;23098;48.054;10.636;2024-02-16T05:35:05;5.20;99.90
37204;DHT22;23098;48.054;10.636;2024-02-16T05:37:47;5.20;99.90
37204;DHT22;23098;48.054;10.636;2024-02-16T05:40:17;5.30;99.90
37204;DHT22;23098;48.054;10.636;2024-02-16T05:42:55;5.20;99.90
37204;DHT22;23098;48.054;10.636;2024-02-16T05:45:24;5.20;99.90
37204;DHT22;23098;48.054;10.636;2024-02-16T05:47:50;5.20;99.90
37204;DHT22;23098;48.054;10.636;2024-02-16T05:50:16;5.30;99.90
37204;DHT22;23098;48.054;10.636;2024-02-16T05:52:43;5.30;99.90
37204;DHT22;23098;48.054;10.636;2024-02-16T05:55:09;5.30;99.90
37204;DHT22;23098;48.054;10.636;2024-02-16T05:57:36;5.30;99.90
37204;DHT22;23098;48.054;10.636;2024-02-16T06:00:03;5.30;99.90
37204;DHT22;23098;48.054;10.636;2024-02-16T06:02:32;5.30;99.90
37204;DHT22;23098;48.054;10.636;2024-02-16T06:04:59;5.30;99.90
37204;DHT22;23098;48.054;10.636;2024-02-16T06:07:24;5.20;99.90
37204;DHT22;23098;48.054;10.636;2024-02-16T06:09:50;5.20;99.90
37204;DHT22;23098;48.054;10.636;2024-02-16T06:12:16;5.10;99.90
37204;DHT22;23098;48.054;10.636;2024-02-16T06:14:42;5.10;99.90
37204;DHT22;23098;48.054;10.636;2024-02-16T06:17:07;5.10;99.90
37204;DHT22;23098;48.054;10.636;2024-02-16T06:19:34;5.10;99.90
37204;DHT22;23098;48.054;10.636;2024-02-16T06:22:00;5.10;99.90
37204;DHT22;23098;48.054;10.636;2024-02-16T06:24:25;5.20;99.90
37204;DHT22;23098;48.054;10.636;2024-02-16T06:26:51;5.20;99.90
37204;DHT22;23098;48.054;10.636;2024-02-16T06:29:17;5.20;99.90
37204;DHT22;23098;48.054;10.636;2024-02-16T06:31:45;5.20;99.90
37204;DHT22;23098;48.054;10.636;2024-02-16T06:34:11;5.20;99.90
37204;DHT22;23098;48.054;10.636;2024-02-16T06:36:37;5.20;99.90
37204;DHT22;23098;48.054;10.636;2024-02-16T06:39:02;5.20;99.90
37204;DHT22;23098;48.054;10.636;2024-02-16T06:41:28;5.20;99.90
37204;DHT22;23098;48.054;10.636;2024-02-16T06:43:53;5.30;99.90
37204;DHT22;23098;48.054;10.636;2024-02-16T06:46:19;5.30;99.90
37204;DHT22;23098;48.054;10.636;2024-02-16T06:48:44;5.30;99.90
37204;DHT22;23098;48.054;10.636;2024-02-16T06:51:10;5.40;99.90
37204;DHT22;23098;48.054;10.636;2024-02-16T06:53:35;5.40;99.90
37204;DHT22;23098;48.054;10.636;2024-02-16T06:56:01;5.40;99.90
37204;DHT22;23098;48.054;10.636;2024-02-16T06:58:27;5.60;99.90
37204;DHT22;23098;48.054;10.636;2024-02-16T07:00:53;5.60;99.90
37204;DHT22;23098;48.054;10.636;2024-02-16T07:03:18;5.80;99.90
37204;DHT22;23098;48.054;10.636;2024-02-16T07:05:44;5.80;99.90
37204;DHT22;23098;48.054;10.636;2024-02-16T07:08:09;5.90;99.90
37204;DHT22;23098;48.054;10.636;2024-02-16T07:10:35;5.90;99.90
37204;DHT22;23098;48.054;10.636;2024-02-16T07:13:00;6.00;99.90
37204;DHT22;23098;48.054;10.636;2024-02-16T07:15:26;6.10;99.90
37204;DHT22;23098;48.054;10.636;2024-02-16T07:17:53;6.20;99.90
37204;DHT22;23098;48.054;10.636;2024-02-16T07:20:18;6.30;99.90
37204;DHT22;23098;48.054;10.636;2024-02-16T07:22:44;6.40;99.90
37204;DHT22;23098;48.054;10.636;2024-02-16T07:25:12;6.50;99.90
37204;DHT22;23098;48.054;10.636;2024-02-16T07:27:38;6.70;99.90
37204;DHT22;23098;48.054;10.636;2024-02-16T07:30:04;6.80;99.90
37204;DHT22;23098;48.054;10.636;2024-02-16T07:32:30;7.00;99.90
37204;DHT22;23098;48.054;10.636;2024-02-16T07:34:55;7.00;99.90
37204;DHT22;23098;48.054;10.636;2024-02-16T07:37:21;7.10;99.90
37204;DHT22;23098;48.054;10.636;2024-02-16T07:39:48;7.20;99.90
37204;DHT22;23098;48.054;10.636;2024-02-16T07:42:14;7.30;99.90
37204;DHT22;23098;48.054;10.636;2024-02-16T07:44:39;7.40;99.90
37204;DHT22;23098;48.054;10.636;2024-02-16T07:47:06;7.50;99.90
37204;DHT22;23098;48.054;10.636;2024-02-16T07:49:32;7.70;99.90
37204;DHT22;23098;48.054;10.636;2024-02-16T07:51:57;7.90;99.90
37204;DHT22;23098;48.054;10.636;2024-02-16T07:54:23;8.10;99.90
37204;DHT22;23098;48.054;10.636;2024-02-16T07:56:49;8.30;99.90
37204;DHT22;23098;48.054;10.636;2024-02-16T07:59:15;8.50;99.90
37204;DHT22;23098;48.054;10.636;2024-02-16T08:01:40;8.80;99.90
37204;DHT22;23098;48.054;10.636;2024-02-16T08:04:06;8.90;99.90
37204;DHT22;23098;48.054;10.636;2024-02-16T08:06:31;9.30;99.90
37204;DHT22;23098;48.054;10.636;2024-02-16T08:08:57;9.60;99.90
37204;DHT22;23098;48.054;10.636;2024-02-16T08:11:23;9.80;99.90
37204;DHT22;23098;48.054;10.636;2024-02-16T08:13:48;10.00;99.90
37204;DHT22;23098;48.054;10.636;2024-02-16T08:16:14;10.30;99.90
37204;DHT22;23098;48.054;10.636;2024-02-16T08:18:39;10.50;99.90
37204;DHT22;23098;48.054;10.636;2024-02-16T08:21:05;10.70;99.90
37204;DHT22;23098;48.054;10.636;2024-02-16T08:23:30;11.00;99.90
37204;DHT22;23098;48.054;10.636;2024-02-16T08:25:56;11.20;99.20
37204;DHT22;23098;48.054;10.636;2024-02-16T08:28:23;11.40;99.40
37204;DHT22;23098;48.054;10.636;2024-02-16T08:30:49;11.80;99.50
37204;DHT22;23098;48.054;10.636;2024-02-16T08:33:15;12.20;98.70
37204;DHT22;23098;48.054;10.636;2024-02-16T08:35:43;12.30;97.60
37204;DHT22;23098;48.054;10.636;2024-02-16T08:38:09;12.50;98.00
37204;DHT22;23098;48.054;10.636;2024-02-16T08:40:40;12.90;96.30
37204;DHT22;23098;48.054;10.636;2024-02-16T08:43:05;13.00;95.70
37204;DHT22;23098;48.054;10.636;2024-02-16T08:45:32;13.10;95.60
37204;DHT22;23098;48.054;10.636;2024-02-16T08:47:58;13.40;95.30
37204;DHT22;23098;48.054;10.636;2024-02-16T08:50:26;13.50;94.80
37204;DHT22;23098;48.054;10.636;2024-02-16T08:52:52;13.50;94.10
37204;DHT22;23098;48.054;10.636;2024-02-16T08:55:18;13.60;93.90
37204;DHT22;23098;48.054;10.636;2024-02-16T08:57:44;13.90;93.70
37204;DHT22;23098;48.054;10.636;2024-02-16T09:00:09;13.90;93.80
37204;DHT22;23098;48.054;10.636;2024-02-16T09:02:37;13.90;93.50
37204;DHT22;23098;48.054;10.636;2024-02-16T09:05:03;13.80;93.50
37204;DHT22;23098;48.054;10.636;2024-02-16T09:07:29;13.60;94.00
37204;DHT22;23098;48.054;10.636;2024-02-16T09:09:55;13.60;94.10
37204;DHT22;23098;48.054;10.636;2024-02-16T09:12:22;13.60;93.90
37204;DHT22;23098;48.054;10.636;2024-02-16T09:14:47;13.50;93.30
37204;DHT22;23098;48.054;10.636;2024-02-16T09:17:13;13.50;93.10
37204;DHT22;23098;48.054;10.636;2024-02-16T09:19:39;13.50;93.00
37204;DHT22;23098;48.054;10.636;2024-02-16T09:22:04;13.60;92.70
37204;DHT22;23098;48.054;10.636;2024-02-16T09:24:32;13.90;92.60
37204;DHT22;23098;48.054;10.636;2024-02-16T09:26:58;14.20;90.90
37204;DHT22;23098;48.054;10.636;2024-02-16T09:29:26;14.40;90.70
37204;DHT22;23098;48.054;10.636;2024-02-16T09:31:52;14.70;89.40
37204;DHT22;23098;48.054;10.636;2024-02-16T09:34:17;14.80;89.00
37204;DHT22;23098;48.054;10.636;2024-02-16T09:36:43;14.70;89.50
37204;DHT22;23098;48.054;10.636;2024-02-16T09:39:08;14.40;89.50
37204;DHT22;23098;48.054;10.636;2024-02-16T09:41:35;14.40;90.50
37204;DHT22;23098;48.054;10.636;2024-02-16T09:44:04;14.20;91.10
37204;DHT22;23098;48.054;10.636;2024-02-16T09:46:33;14.20;90.80
37204;DHT22;23098;48.054;10.636;2024-02-16T09:49:03;14.10;91.10
37204;DHT22;23098;48.054;10.636;2024-02-16T09:51:29;13.90;91.50
37204;DHT22;23098;48.054;10.636;2024-02-16T09:53:55;13.90;91.40
37204;DHT22;23098;48.054;10.636;2024-02-16T09:56:20;13.90;91.50
37204;DHT22;23098;48.054;10.636;2024-02-16T09:58:46;13.80;91.80
37204;DHT22;23098;48.054;10.636;2024-02-16T10:01:18;13.80;92.50
37204;DHT22;23098;48.054;10.636;2024-02-16T10:03:45;13.80;92.60
37204;DHT22;23098;48.054;10.636;2024-02-16T10:06:11;13.80;92.40
37204;DHT22;23098;48.054;10.636;2024-02-16T10:08:55;13.80;92.50
37204;DHT22;23098;48.054;10.636;2024-02-16T10:11:27;13.80;92.80
37204;DHT22;23098;48.054;10.636;2024-02-16T10:13:58;13.80;92.80
37204;DHT22;23098;48.054;10.636;2024-02-16T10:16:24;13.80;92.70
37204;DHT22;23098;48.054;10.636;2024-02-16T10:18:50;13.80;92.90
37204;DHT22;23098;48.054;10.636;2024-02-16T10:21:26;13.80;92.90
37204;DHT22;23098;48.054;10.636;2024-02-16T10:24:04;13.90;93.00
37204;DHT22;23098;48.054;10.636;2024-02-16T10:26:32;14.00;92.90
37204;DHT22;23098;48.054;10.636;2024-02-16T10:28:58;14.10;92.80
37204;DHT22;23098;48.054;10.636;2024-02-16T10:31:24;14.10;93.30
37204;DHT22;23098;48.054;10.636;2024-02-16T10:34:03;14.40;93.10
37204;DHT22;23098;48.054;10.636;2024-02-16T10:36:36;14.60;92.70
37204;DHT22;23098;48.054;10.636;2024-02-16T10:39:03;14.60;92.20
37204;DHT22;23098;48.054;10.636;2024-02-16T10:41:47;14.70;91.90
37204;DHT22;23098;48.054;10.636;2024-02-16T10:44:14;14.90;91.80
37204;DHT22;23098;48.054;10.636;2024-02-16T10:46:40;15.20;91.70
37204;DHT22;23098;48.054;10.636;2024-02-16T10:49:05;15.30;91.50
37204;DHT22;23098;48.054;10.636;2024-02-16T10:51:41;15.40;91.30
37204;DHT22;23098;48.054;10.636;2024-02-16T10:54:09;15.50;91.00
37204;DHT22;23098;48.054;10.636;2024-02-16T10:56:37;15.60;91.30
37204;DHT22;23098;48.054;10.636;2024-02-16T10:59:04;15.60;91.20
37204;DHT22;23098;48.054;10.636;2024-02-16T11:01:38;15.50;90.50
37204;DHT22;23098;48.054;10.636;2024-02-16T11:04:05;15.40;90.90
37204;DHT22;23098;48.054;10.636;2024-02-16T11:06:47;15.40;91.10
37204;DHT22;23098;48.054;10.636;2024-02-16T11:09:26;15.50;91.00
37204;DHT22;23098;48.054;10.636;2024-02-16T11:11:59;15.60;91.10
37204;DHT22;23098;48.054;10.636;2024-02-16T11:14:34;15.50;91.10
37204;DHT22;23098;48.054;10.636;2024-02-16T11:17:02;15.60;91.20
37204;DHT22;23098;48.054;10.636;2024-02-16T11:19:29;15.50;91.20
37204;DHT22;23098;48.054;10.636;2024-02-16T11:21:56;15.60;91.30
37204;DHT22;23098;48.054;10.636;2024-02-16T11:24:30;15.70;91.50
37204;DHT22;23098;48.054;10.636;2024-02-16T11:26:56;15.80;91.20
37204;DHT22;23098;48.054;10.636;2024-02-16T11:29:22;15.80;91.30
37204;DHT22;23098;48.054;10.636;2024-02-16T11:31:48;15.80;91.30
37204;DHT22;23098;48.054;10.636;2024-02-16T11:34:24;15.80;91.30
37204;DHT22;23098;48.054;10.636;2024-02-16T11:36:53;15.80;91.20
37204;DHT22;23098;48.054;10.636;2024-02-16T11:39:19;15.70;91.30
37204;DHT22;23098;48.054;10.636;2024-02-16T11:41:45;15.80;91.50
37204;DHT22;23098;48.054;10.636;2024-02-16T11:44:12;15.80;91.70
37204;DHT22;23098;48.054;10.636;2024-02-16T11:46:38;15.80;91.10
37204;DHT22;23098;48.054;10.636;2024-02-16T11:49:07;15.80;91.50
37204;DHT22;23098;48.054;10.636;2024-02-16T11:51:33;15.90;91.60
37204;DHT22;23098;48.054;10.636;2024-02-16T11:53:59;16.00;91.30
37204;DHT22;23098;48.054;10.636;2024-02-16T11:56:25;16.00;91.30
37204;DHT22;23098;48.054;10.636;2024-02-16T11:58:52;15.90;90.40
37204;DHT22;23098;48.054;10.636;2024-02-16T12:01:18;15.70;90.80
37204;DHT22;23098;48.054;10.636;2024-02-16T12:03:43;15.70;90.80
37204;DHT22;23098;48.054;10.636;2024-02-16T12:06:09;15.60;90.80
37204;DHT22;23098;48.054;10.636;2024-02-16T12:08:44;15.70;90.40
37204;DHT22;23098;48.054;10.636;2024-02-16T12:11:11;15.80;90.40
37204;DHT22;23098;48.054;10.636;2024-02-16T12:13:39;15.80;90.10
37204;DHT22;23098;48.054;10.636;2024-02-16T12:16:05;15.80;90.10
37204;DHT22;23098;48.054;10.636;2024-02-16T12:18:32;15.80;90.30
37204;DHT22;23098;48.054;10.636;2024-02-16T12:21:02;15.70;90.10
37204;DHT22;23098;48.054;10.636;2024-02-16T12:23:29;15.70;90.30
37204;DHT22;23098;48.054;10.636;2024-02-16T12:25:56;15.60;89.90
37204;DHT22;23098;48.054;10.636;2024-02-16T12:28:25;15.60;90.30
37204;DHT22;23098;48.054;10.636;2024-02-16T12:30:51;15.50;90.50
37204;DHT22;23098;48.054;10.636;2024-02-16T12:33:18;15.50;90.20
37204;DHT22;23098;48.054;10.636;2024-02-16T12:35:43;15.40;90.60
37204;DHT22;23098;48.054;10.636;2024-02-16T12:38:11;15.60;90.70
37204;DHT22;23098;48.054;10.636;2024-02-16T12:43:41;15.50;90.30
37204;DHT22;23098;48.054;10.636;2024-02-16T12:46:07;15.40;90.70
37204;DHT22;23098;48.054;10.636;2024-02-16T12:48:32;15.30;90.00
37204;DHT22;23098;48.054;10.636;2024-02-16T12:50:58;15.30;90.00
37204;DHT22;23098;48.054;10.636;2024-02-16T12:53:23;15.30;90.40
37204;DHT22;23098;48.054;10.636;2024-02-16T12:55:51;15.20;90.30
37204;DHT22;23098;48.054;10.636;2024-02-16T12:58:16;15.30;90.20
37204;DHT22;23098;48.054;10.636;2024-02-16T13:00:42;15.40;90.60
37204;DHT22;23098;48.054;10.636;2024-02-16T13:03:07;15.40;90.30
37204;DHT22;23098;48.054;10.636;2024-02-16T13:05:33;15.40;90.60
37204;DHT22;23098;48.054;10.636;2024-02-16T13:07:59;15.40;90.40
37204;DHT22;23098;48.054;10.636;2024-02-16T13:10:25;15.40;90.40
37204;DHT22;23098;48.054;10.636;2024-02-16T13:12:50;15.50;90.70
37204;DHT22;23098;48.054;10.636;2024-02-16T13:15:17;15.50;91.00
37204;DHT22;23098;48.054;10.636;2024-02-16T13:17:42;15.50;90.60
37204;DHT22;23098;48.054;10.636;2024-02-16T13:20:08;15.40;90.40
37204;DHT22;23098;48.054;10.636;2024-02-16T13:22:39;15.30;90.50
37204;DHT22;23098;48.054;10.636;2024-02-16T13:25:05;15.20;90.60
37204;DHT22;23098;48.054;10.636;2024-02-16T13:27:33;15.20;90.80
37204;DHT22;23098;48.054;10.636;2024-02-16T13:29:59;15.00;90.60
37204;DHT22;23098;48.054;10.636;2024-02-16T13:32:25;14.90;90.80
37204;DHT22;23098;48.054;10.636;2024-02-16T13:34:51;15.00;91.20
37204;DHT22;23098;48.054;10.636;2024-02-16T13:37:16;15.00;90.90
37204;DHT22;23098;48.054;10.636;2024-02-16T13:39:42;15.00;90.80
37204;DHT22;23098;48.054;10.636;2024-02-16T13:42:08;15.00;91.10
37204;DHT22;23098;48.054;10.636;2024-02-16T13:44:34;15.00;90.90
37204;DHT22;23098;48.054;10.636;2024-02-16T13:47:00;15.10;91.10
37204;DHT22;23098;48.054;10.636;2024-02-16T13:49:25;15.10;91.60
37204;DHT22;23098;48.054;10.636;2024-02-16T13:51:51;15.00;91.30
37204;DHT22;23098;48.054;10.636;2024-02-16T13:54:17;14.90;90.70
37204;DHT22;23098;48.054;10.636;2024-02-16T13:56:43;14.80;91.10
37204;DHT22;23098;48.054;10.636;2024-02-16T13:59:08;14.80;91.30
37204;DHT22;23098;48.054;10.636;2024-02-16T14:01:34;14.70;91.20
37204;DHT22;23098;48.054;10.636;2024-02-16T14:04:01;14.70;91.30
37204;DHT22;23098;48.054;10.636;2024-02-16T14:06:27;14.70;91.30
37204;DHT22;23098;48.054;10.636;2024-02-16T14:08:52;14.70;91.40
37204;DHT22;23098;48.054;10.636;2024-02-16T14:11:21;14.70;91.80
37204;DHT22;23098;48.054;10.636;2024-02-16T14:13:47;14.60;91.50
37204;DHT22;23098;48.054;10.636;2024-02-16T14:16:13;14.50;91.60
37204;DHT22;23098;48.054;10.636;2024-02-16T14:18:39;14.40;91.40
37204;DHT22;23098;48.054;10.636;2024-02-16T14:21:04;14.40;91.60
37204;DHT22;23098;48.054;10.636;2024-02-16T14:23:30;14.30;91.60
37204;DHT22;23098;48.054;10.636;2024-02-16T14:25:57;14.30;92.00
37204;DHT22;23098;48.054;10.636;2024-02-16T14:28:23;14.20;92.30
37204;DHT22;23098;48.054;10.636;2024-02-16T14:30:49;14.20;92.50
37204;DHT22;23098;48.054;10.636;2024-02-16T14:33:16;14.20;92.80
37204;DHT22;23098;48.054;10.636;2024-02-16T14:35:45;14.10;93.00
37204;DHT22;23098;48.054;10.636;2024-02-16T14:38:11;14.10;92.90
37204;DHT22;23098;48.054;10.636;2024-02-16T14:40:38;14.10;92.50
37204;DHT22;23098;48.054;10.636;2024-02-16T14:43:04;14.00;92.40
37204;DHT22;23098;48.054;10.636;2024-02-16T14:45:30;13.90;92.40
37204;DHT22;23098;48.054;10.636;2024-02-16T14:47:55;13.90;93.00
37204;DHT22;23098;48.054;10.636;2024-02-16T14:50:22;13.90;92.70
37204;DHT22;23098;48.054;10.636;2024-02-16T14:52:47;13.90;93.40
37204;DHT22;23098;48.054;10.636;2024-02-16T14:55:13;13.90;93.40
37204;DHT22;23098;48.054;10.636;2024-02-16T14:57:39;13.90;93.40
37204;DHT22;23098;48.054;10.636;2024-02-16T15:00:06;13.90;93.40
37204;DHT22;23098;48.054;10.636;2024-02-16T15:02:32;13.90;93.50
37204;DHT22;23098;48.054;10.636;2024-02-16T15:04:58;13.90;93.60
37204;DHT22;23098;48.054;10.636;2024-02-16T15:07:23;13.80;93.70
37204;DHT22;23098;48.054;10.636;2024-02-16T15:09:49;13.90;93.40
37204;DHT22;23098;48.054;10.636;2024-02-16T15:12:14;13.80;93.80
37204;DHT22;23098;48.054;10.636;2024-02-16T15:14:47;13.80;93.80
37204;DHT22;23098;48.054;10.636;2024-02-16T15:17:13;13.90;93.80
37204;DHT22;23098;48.054;10.636;2024-02-16T15:19:39;13.90;93.50
37204;DHT22;23098;48.054;10.636;2024-02-16T15:22:04;13.90;93.90
37204;DHT22;23098;48.054;10.636;2024-02-16T15:24:30;13.80;94.40